Euskara    
Meteorología y climatología de Navarra
Datos de la estación - Meteo Navarra

Estación de Yesa GN

Altitud 487 m.


Datos desde el 08/04/2021 hasta el 09/04/2021 en horario solar
Los datos son PROVISIONALES

Anterior Página 1 de 1 Siguiente Descargar: Formato para Excel 2000 o superior   Formato csv   Formato para OpenOffice Calc
Fecha Temperatura Humedad relativa Radiación global Insolación Precipitación Vel. viento 10 m Vel. viento 10 m Dir. viento 10 m
°C % W/m² s l/m² m/s km/h °
08/04/2021 0:00 6.0 69 0.0 0 0.0 3.0 10.7 103
08/04/2021 0:10 6.0 70 0.0 0 0.0 2.1 7.6 115
08/04/2021 0:20 5.8 70 0.0 0 0.0 2.4 8.7 118
08/04/2021 0:30 5.7 71 0.0 0 0.0 1.2 4.2 112
08/04/2021 0:40 5.3 72 0.0 0 0.0 1.4 5.1 117
08/04/2021 0:50 5.4 73 0.0 0 0.0 1.6 5.6 115
08/04/2021 1:00 5.3 73 0.0 0 0.0 2.5 8.9 100
08/04/2021 1:10 5.3 73 0.0 0 0.0 2.1 7.5 101
08/04/2021 1:20 5.1 75 0.0 0 0.0 1.7 6.0 101
08/04/2021 1:30 4.9 75 0.0 0 0.0 2.3 8.4 109
08/04/2021 1:40 5.1 73 0.0 0 0.0 2.2 7.8 116
08/04/2021 1:50 5.2 73 0.0 0 0.0 1.8 6.6 111
08/04/2021 2:00 5.2 74 0.0 0 0.0 2.1 7.5 116
08/04/2021 2:10 5.1 75 0.0 0 0.0 2.1 7.6 114
08/04/2021 2:20 5.1 74 0.0 0 0.0 2.1 7.6 113
08/04/2021 2:30 5.1 75 0.0 0 0.0 2.0 7.3 112
08/04/2021 2:40 4.9 76 0.0 0 0.0 2.3 8.2 110
08/04/2021 2:50 5.0 75 0.0 0 0.0 2.3 8.3 97
08/04/2021 3:00 5.0 74 0.0 0 0.0 2.8 10.0 97
08/04/2021 3:10 5.1 75 0.0 0 0.0 3.2 11.5 89
08/04/2021 3:20 5.1 75 0.0 0 0.0 3.3 11.8 89
08/04/2021 3:30 4.9 75 0.0 0 0.0 3.6 13.1 94
08/04/2021 3:40 5.0 73 0.0 0 0.0 3.2 11.5 94
08/04/2021 3:50 5.0 74 0.0 0 0.0 3.5 12.7 76
08/04/2021 4:00 5.1 74 0.0 0 0.0 4.2 15.0 76
08/04/2021 4:10 5.2 74 0.0 0 0.0 4.2 15.2 75
08/04/2021 4:20 5.3 75 0.0 0 0.0 3.6 12.9 76
08/04/2021 4:30 5.2 76 0.0 0 0.0 2.8 10.2 79
08/04/2021 4:40 5.1 77 0.0 0 0.0 2.8 10.2 73
08/04/2021 4:50 5.0 78 0.0 0 0.0 2.1 7.5 79
08/04/2021 5:00 5.0 78 0.0 0 0.0 1.3 4.8 75
08/04/2021 5:10 5.0 79 0.0 0 0.0 2.6 9.4 79
08/04/2021 5:20 5.3 78 0.0 0 0.0 2.7 9.9 87
08/04/2021 5:30 5.2 79 0.0 0 0.0 1.8 6.6 84
08/04/2021 5:40 5.0 79 0.0 0 0.0 1.8 6.6 76
08/04/2021 5:50 5.0 79 0.0 0 0.0 2.3 8.2 70
08/04/2021 6:00 5.1 79 15.8 0 0.0 2.1 7.7 84
08/04/2021 6:10 5.4 78 39.8 304 0.0 2.3 8.3 87
08/04/2021 6:20 5.6 77 53.5 206 0.0 2.2 8.0 89
08/04/2021 6:30 5.8 77 91.9 478 0.0 1.9 6.8 84
08/04/2021 6:40 6.2 75 129.3 600 0.0 2.2 8.0 95
08/04/2021 6:50 6.7 73 164.1 600 0.0 2.5 8.8 98
08/04/2021 7:00 7.1 71 210.3 600 0.0 2.4 8.5 111
08/04/2021 7:10 7.5 68 238.3 600 0.0 2.1 7.4 107
08/04/2021 7:20 8.1 67 283.8 600 0.0 2.2 7.9 107
08/04/2021 7:30 8.3 65 333.6 600 0.0 2.8 10.0 116
08/04/2021 7:40 8.4 65 328.4 530 0.0 2.9 10.5 114
08/04/2021 7:50 8.9 63 362.1 548 0.0 3.0 10.7 116
08/04/2021 8:00 9.1 62 442.2 600 0.0 2.4 8.5 128
08/04/2021 8:10 9.5 61 415.7 582 0.0 2.8 10.2 128
08/04/2021 8:20 9.7 60 351.1 394 0.0 3.1 11.1 123
08/04/2021 8:30 9.4 60 238.5 0 0.0 3.1 11.2 120
08/04/2021 8:40 9.5 59 250.7 0 0.0 2.9 10.5 115
08/04/2021 8:50 9.7 58 249.7 0 0.0 3.1 11.3 114
08/04/2021 9:00 10.0 57 244.5 0 0.0 2.5 9.0 109
08/04/2021 9:10 10.2 57 237.9 0 0.0 2.6 9.4 110
08/04/2021 9:20 10.4 56 240.5 0 0.0 2.2 8.0 109
08/04/2021 9:30 10.7 56 279.8 0 0.0 1.8 6.3 121
08/04/2021 9:40 11.0 55 338.8 0 0.0 2.0 7.0 118
08/04/2021 9:50 11.1 54 330.2 0 0.0 2.1 7.4 128
08/04/2021 10:00 11.5 54 346.6 0 0.0 1.3 4.6 151
08/04/2021 10:10 11.8 53 352.2 0 0.0 1.7 6.0 137
08/04/2021 10:20 12.2 53 417.0 550 0.0 1.6 5.8 119
08/04/2021 10:30 12.3 52 568.7 600 0.0 2.1 7.5 122
08/04/2021 10:40 13.1 52 504.6 600 0.0 2.4 8.8 106
08/04/2021 10:50 13.0 51 450.5 600 0.0 1.9 6.9 122
08/04/2021 11:00 13.2 52 541.9 600 0.0 1.3 4.6 146
08/04/2021 11:10 13.7 51 603.7 600 0.0 1.1 4.0 122
08/04/2021 11:20 14.1 51 498.9 500 0.0 1.3 4.5 122
08/04/2021 11:30 14.1 51 575.0 450 0.0 1.9 6.7 171
08/04/2021 11:40 14.5 50 807.0 600 0.0 1.5 5.4 144
08/04/2021 11:50 15.1 49 820.0 600 0.0 1.4 5.0 140
08/04/2021 12:00 15.3 49 856.0 600 0.0 0.9 3.1 141
08/04/2021 12:10 15.5 48 823.0 600 0.0 1.3 4.5 122
08/04/2021 12:20 15.9 49 876.0 600 0.0 1.5 5.4 111
08/04/2021 12:30 16.5 47 812.0 600 0.0 1.9 6.8 169
08/04/2021 12:40 16.5 47 824.0 600 0.0 1.6 5.7 139
08/04/2021 12:50 16.7 46 744.0 600 0.0 1.8 6.6 143
08/04/2021 13:00 16.6 47 816.0 600 0.0 1.1 4.1 107
08/04/2021 13:10 16.9 46 804.0 600 0.0 1.7 6.3 122
08/04/2021 13:20 17.0 46 647.1 600 0.0 1.5 5.5 138
08/04/2021 13:30 17.2 45 726.8 600 0.0 1.7 6.0 135
08/04/2021 13:40 17.0 45 775.6 600 0.0 1.8 6.6 148
08/04/2021 13:50 17.3 45 600.9 600 0.0 1.0 3.6 156
08/04/2021 14:00 17.3 44 746.1 600 0.0 1.8 6.3 135
08/04/2021 14:10 17.4 44 830.0 600 0.0 1.6 5.7 163
08/04/2021 14:20 18.0 44 754.2 600 0.0 1.1 4.1 127
08/04/2021 14:30 17.8 44 543.5 600 0.0 1.4 4.9 102
08/04/2021 14:40 17.9 43 480.2 600 0.0 1.0 3.6 200
08/04/2021 14:50 17.7 44 537.3 600 0.0 0.9 3.3 165
08/04/2021 15:00 17.9 44 618.5 600 0.0 1.1 4.0 169
08/04/2021 15:10 18.1 44 528.2 592 0.0 1.1 3.9 268
08/04/2021 15:20 18.0 44 381.9 476 0.0 1.2 4.4 145
08/04/2021 15:30 17.9 45 488.8 454 0.0 1.3 4.7 211
08/04/2021 15:40 18.3 44 617.4 600 0.0 1.6 5.9 272
08/04/2021 15:50 18.5 45 541.9 600 0.0 2.1 7.4 319
08/04/2021 16:00 18.7 43 451.0 600 0.0 0.9 3.2 214
08/04/2021 16:10 18.8 42 413.0 600 0.0 0.9 3.1 239
08/04/2021 16:20 18.5 42 412.9 600 0.0 1.6 5.7 260
08/04/2021 16:30 18.8 42 370.4 600 0.0 1.0 3.5 231
08/04/2021 16:40 18.7 43 309.6 600 0.0 0.6 2.2 225
08/04/2021 16:50 18.6 43 259.1 582 0.0 0.9 3.4 286
08/04/2021 17:00 18.3 44 254.5 600 0.0 1.6 5.8 287
08/04/2021 17:10 18.4 44 218.6 600 0.0 0.7 2.4 270
08/04/2021 17:20 18.3 44 185.9 600 0.0 0.7 2.4 225
08/04/2021 17:30 18.2 44 149.6 600 0.0 0.9 3.3 283
08/04/2021 17:40 17.7 45 108.3 488 0.0 0.8 2.9 260
08/04/2021 17:50 17.4 46 49.6 46 0.0 0.8 2.8 287
08/04/2021 18:00 16.6 49 22.6 0 0.0 0.6 2.1 302
08/04/2021 18:10 16.0 50 10.9 0 0.0 0.6 2.1 296
08/04/2021 18:20 15.0 53 0.0 0 0.0 0.1 0.3 282
08/04/2021 18:30 13.7 58 0.0 0 0.0 0.8 3.0 331
08/04/2021 18:40 12.9 61 0.0 0 0.0 0.9 3.1 299
08/04/2021 18:50 12.4 63 0.0 0 0.0 0.1 0.4 312
08/04/2021 19:00 11.2 68 0.0 0 0.0 0.9 3.1 322
08/04/2021 19:10 11.1 69 0.0 0 0.0 0.5 1.8 312
08/04/2021 19:20 11.2 69 0.0 0 0.0 0.0 0.0 0
08/04/2021 19:30 11.1 72 0.0 0 0.0 0.3 1.0 20
08/04/2021 19:40 11.8 70 0.0 0 0.0 1.1 3.9 326
08/04/2021 19:50 12.2 67 0.0 0 0.0 0.7 2.5 276
08/04/2021 20:00 12.3 67 0.0 0 0.0 0.4 1.5 338
08/04/2021 20:10 12.2 68 0.0 0 0.0 0.4 1.5 302
08/04/2021 20:20 12.3 66 0.0 0 0.0 0.2 0.6 122
08/04/2021 20:30 12.0 68 0.0 0 0.0 0.4 1.4 108
08/04/2021 20:40 11.7 70 0.0 0 0.0 0.8 3.0 110
08/04/2021 20:50 12.5 71 0.0 0 0.0 1.4 4.9 115
08/04/2021 21:00 12.7 70 0.0 0 0.0 1.1 4.1 120
08/04/2021 21:10 12.7 68 0.0 0 0.0 1.9 6.9 111
08/04/2021 21:20 12.7 67 0.0 0 0.0 1.6 5.7 109
08/04/2021 21:30 12.9 66 0.0 0 0.0 2.1 7.6 102
08/04/2021 21:40 13.0 65 0.0 0 0.0 1.7 6.2 110
08/04/2021 21:50 13.0 65 0.0 0 0.0 1.7 6.0 115
08/04/2021 22:00 12.9 66 0.0 0 0.0 2.6 9.2 109
08/04/2021 22:10 12.7 66 0.0 0 0.0 2.6 9.4 106
08/04/2021 22:20 12.4 66 0.0 0 0.0 2.7 9.8 112
08/04/2021 22:30 12.1 67 0.0 0 0.0 1.7 6.0 110
08/04/2021 22:40 11.7 68 0.0 0 0.0 1.6 5.9 98
08/04/2021 22:50 11.6 70 0.0 0 0.0 1.9 6.9 98
08/04/2021 23:00 11.0 71 0.0 0 0.0 2.4 8.5 80
08/04/2021 23:10 10.8 72 0.0 0 0.0 2.0 7.3 81
08/04/2021 23:20 10.7 72 0.0 0 0.0 1.8 6.6 94
08/04/2021 23:30 10.9 73 0.0 0 0.0 1.6 5.6 115
08/04/2021 23:40 10.7 74 0.0 0 0.0 1.8 6.4 102
08/04/2021 23:50 10.6 72 0.0 0 0.0 1.9 6.9 88
Anterior Página 1 de 1 Siguiente

NOTA: Tipo de datos según el color:
   - Valores diarios o 10 minutos correctos
   - Valores diarios calculados a partir de un número de datos 10 minutos menor que 144 y mayor que 120, o de un número de datos semihorarios menor que 48 y mayor que 40 (caso de las estaciones de INTIA Y Ministerio)
   - Valores diez minutos estimados


Contacto        Enlaces        Aviso legal